createdAt,value
2022-09-24T00:01:34.508Z,100709.53
2022-09-24T00:04:04.900Z,100706.94
2022-09-24T00:06:35.938Z,100708.66
2022-09-24T00:09:02.361Z,100698.19
2022-09-24T00:11:33.250Z,100704.22
2022-09-24T00:13:59.960Z,100701.63
2022-09-24T00:16:28.400Z,100690.31
2022-09-24T00:18:54.987Z,100689.41
2022-09-24T00:21:24.197Z,100692.88
2022-09-24T00:23:56.149Z,100685.91
2022-09-24T00:26:41.605Z,100688.53
2022-09-24T00:29:09.499Z,100691.97
2022-09-24T00:31:36.698Z,100682.41
2022-09-24T00:34:03.815Z,100680.63
2022-09-24T00:36:30.646Z,100684.09
2022-09-24T00:38:58.368Z,100679.72
2022-09-24T00:41:31.158Z,100677.13
2022-09-24T00:43:58.093Z,100675.34
2022-09-24T00:46:38.617Z,100668.38
2022-09-24T00:49:11.991Z,100667.47
2022-09-24T00:51:38.411Z,100670.09
2022-09-24T00:54:08.408Z,100678.69
2022-09-24T00:56:36.681Z,100670.00
2022-09-24T00:59:04.480Z,100664.78
2022-09-24T01:01:30.896Z,100672.56
2022-09-24T01:03:58.462Z,100676.06
2022-09-24T01:06:25.485Z,100676.91
2022-09-24T01:08:52.961Z,100685.59
2022-09-24T01:11:42.726Z,100682.09
2022-09-24T01:14:26.022Z,100685.56
2022-09-24T01:17:13.837Z,100681.19
2022-09-24T01:20:17.686Z,100684.63
2022-09-24T01:23:12.138Z,100672.44
2022-09-24T01:26:19.988Z,100675.00
2022-09-24T01:29:21.041Z,100669.72
2022-09-24T01:32:18.770Z,100666.22
2022-09-24T01:34:52.591Z,100663.56
2022-09-24T01:37:22.463Z,100663.56
2022-09-24T01:39:49.499Z,100658.34
2022-09-24T01:42:16.651Z,100661.81
2022-09-24T01:44:44.296Z,100665.31
2022-09-24T01:47:16.416Z,100662.63
2022-09-24T01:49:42.809Z,100668.75
2022-09-24T01:52:10.746Z,100663.53
2022-09-24T01:54:40.479Z,100671.31
2022-09-24T01:57:17.381Z,100662.59
2022-09-24T01:59:52.319Z,100678.22
2022-09-24T02:02:28.638Z,100662.53
2022-09-24T02:05:03.267Z,100665.94
2022-09-24T02:07:33.793Z,100666.75
2022-09-24T02:10:00.271Z,100663.28
2022-09-24T02:12:31.647Z,100656.31
2022-09-24T02:15:13.561Z,100653.69
2022-09-24T02:17:41.936Z,100660.66
2022-09-24T02:20:13.709Z,100659.78
2022-09-24T02:22:40.450Z,100655.44
2022-09-24T02:25:09.953Z,100651.94
2022-09-24T02:27:36.397Z,100661.53
2022-09-24T02:30:02.881Z,100655.41
2022-09-24T02:32:31.139Z,100659.69
2022-09-24T02:35:02.562Z,100653.63
2022-09-24T02:37:29.553Z,100646.66
2022-09-24T02:39:55.991Z,100641.44
2022-09-24T02:42:22.453Z,100637.94
2022-09-24T02:44:49.084Z,100637.03
2022-09-24T02:47:15.507Z,100633.47
2022-09-24T02:49:41.936Z,100638.66
2022-09-24T02:52:08.390Z,100641.22
2022-09-24T02:54:34.797Z,100641.22
2022-09-24T02:57:01.202Z,100625.53
2022-09-24T02:59:27.604Z,100637.69
2022-09-24T03:01:54.168Z,100633.25
2022-09-24T03:04:20.674Z,100630.63
2022-09-24T03:06:47.186Z,100633.19
2022-09-24T03:09:13.646Z,100630.50
2022-09-24T03:11:40.070Z,100639.16
2022-09-24T03:14:06.617Z,100626.09
2022-09-24T03:16:33.626Z,100623.47
2022-09-24T03:19:00.136Z,100629.56
2022-09-24T03:21:26.537Z,100623.44
2022-09-24T03:23:52.962Z,100618.22
2022-09-24T03:26:19.334Z,100623.41
2022-09-24T03:28:46.028Z,100612.94
2022-09-24T03:31:12.976Z,100617.28
2022-09-24T03:33:45.381Z,100619.84
2022-09-24T03:36:12.974Z,100611.13
2022-09-24T03:38:40.462Z,100611.09
2022-09-24T03:41:07.757Z,100611.94
2022-09-24T03:43:34.571Z,100605.84
2022-09-24T03:46:01.199Z,100604.09
2022-09-24T03:48:28.507Z,100602.31
2022-09-24T03:50:54.906Z,100602.31
2022-09-24T03:53:22.015Z,100605.78
2022-09-24T03:55:53.534Z,100597.94
2022-09-24T03:58:19.945Z,100605.75
2022-09-24T04:00:46.383Z,100605.72
2022-09-24T04:03:12.862Z,100604.84
2022-09-24T04:05:40.148Z,100598.75
2022-09-24T04:08:07.090Z,100597.88
2022-09-24T04:10:33.570Z,100603.97
2022-09-24T04:13:00.034Z,100592.63
2022-09-24T04:15:26.451Z,100600.44
2022-09-24T04:17:54.613Z,100599.56
2022-09-24T04:20:22.696Z,100593.47
2022-09-24T04:22:55.002Z,100596.03
2022-09-24T04:25:22.415Z,100600.34
2022-09-24T04:27:56.869Z,100596.84
2022-09-24T04:30:24.481Z,100596.84
2022-09-24T04:32:51.512Z,100599.44
2022-09-24T04:35:19.301Z,100595.06
2022-09-24T04:37:46.457Z,100595.06
2022-09-24T04:40:12.965Z,100595.91
2022-09-24T04:42:40.360Z,100591.56
2022-09-24T04:45:07.943Z,100582.84
2022-09-24T04:47:34.975Z,100581.06
2022-09-24T04:50:02.646Z,100586.25
2022-09-24T04:52:32.555Z,100576.69
2022-09-24T04:54:59.765Z,100585.38
2022-09-24T04:57:27.069Z,100583.63
2022-09-24T04:59:53.497Z,100587.88
2022-09-24T05:02:20.099Z,100593.97
2022-09-24T05:04:47.058Z,100593.09
2022-09-24T05:07:13.660Z,100592.25
2022-09-24T05:09:40.034Z,100590.47
2022-09-24T05:12:06.516Z,100586.22
2022-09-24T05:14:32.893Z,100594.84
2022-09-24T05:16:59.296Z,100596.50
2022-09-24T05:19:25.743Z,100593.88
2022-09-24T05:21:52.152Z,100593.88
2022-09-24T05:24:18.529Z,100593.88
2022-09-24T05:27:03.698Z,100601.72
2022-09-24T05:29:30.106Z,100601.69
2022-09-24T05:31:56.558Z,100595.56
2022-09-24T05:34:22.958Z,100608.59
2022-09-24T05:36:49.388Z,100599.84
2022-09-24T05:39:15.801Z,100607.59
2022-09-24T05:41:43.638Z,100599.78
2022-09-24T05:44:11.212Z,100603.25
2022-09-24T05:46:38.183Z,100607.59
2022-09-24T05:49:04.818Z,100610.22
2022-09-24T05:51:31.304Z,100611.13
2022-09-24T05:53:57.750Z,100615.50
2022-09-24T05:56:24.137Z,100612.03
2022-09-24T05:58:50.715Z,100610.34
2022-09-24T06:01:17.619Z,100612.09
2022-09-24T06:03:44.037Z,100616.50
2022-09-24T06:06:10.499Z,100621.75
2022-09-24T06:08:36.882Z,100624.34
2022-09-24T06:11:05.520Z,100622.69
2022-09-24T06:13:33.654Z,100620.09
2022-09-24T06:16:09.223Z,100624.44
2022-09-24T06:18:38.535Z,100622.69
2022-09-24T06:21:07.830Z,100632.25
2022-09-24T06:23:35.295Z,100637.50
2022-09-24T06:26:02.278Z,100630.53
2022-09-24T06:28:28.683Z,100630.53
2022-09-24T06:30:55.093Z,100636.59
2022-09-24T06:33:22.058Z,100642.66
2022-09-24T06:35:48.444Z,100643.53
2022-09-24T06:38:16.636Z,100647.00
2022-09-24T06:40:45.533Z,100647.88
2022-09-24T06:43:13.449Z,100659.22
2022-09-24T06:45:41.606Z,100647.03
2022-09-24T06:48:10.097Z,100651.41
2022-09-24T06:50:39.841Z,100641.91
2022-09-24T06:53:06.776Z,100646.28
2022-09-24T06:55:34.462Z,100650.69
2022-09-24T06:58:06.129Z,100652.47
2022-09-24T07:00:33.063Z,100653.41
2022-09-24T07:02:59.515Z,100649.09
2022-09-24T07:05:25.923Z,100641.34
2022-09-24T07:07:52.418Z,100644.03
2022-09-24T07:10:18.846Z,100640.63
2022-09-24T07:12:45.667Z,100643.34
2022-09-24T07:15:12.144Z,100644.28
2022-09-24T07:17:38.530Z,100643.44
2022-09-24T07:20:05.340Z,100649.59
2022-09-24T07:22:31.817Z,100643.56
2022-09-24T07:24:58.194Z,100641.91
2022-09-24T07:27:24.600Z,100638.47
2022-09-24T07:29:51.000Z,100642.03
2022-09-24T07:32:17.484Z,100636.88
2022-09-24T07:34:45.223Z,100643.03
2022-09-24T07:37:12.051Z,100645.72
2022-09-24T07:39:38.450Z,100640.53
2022-09-24T07:42:05.786Z,100641.50
2022-09-24T07:44:32.187Z,100632.91
2022-09-24T07:46:58.760Z,100641.69
2022-09-24T07:49:25.233Z,100639.13
2022-09-24T07:51:51.647Z,100635.72
2022-09-24T07:54:18.179Z,100641.88
2022-09-24T07:56:44.719Z,100642.84
2022-09-24T07:59:11.195Z,100645.53
2022-09-24T08:01:37.647Z,100633.34
2022-09-24T08:04:04.684Z,100630.75
2022-09-24T08:06:38.333Z,100636.88
2022-09-24T08:09:06.874Z,100640.38
2022-09-24T08:11:33.554Z,100649.16
2022-09-24T08:14:00.664Z,100650.09
2022-09-24T08:16:27.234Z,100656.25
2022-09-24T08:18:54.059Z,100665.88
2022-09-24T08:21:20.535Z,100665.03
2022-09-24T08:23:47.077Z,100665.09
2022-09-24T08:26:14.375Z,100665.19
2022-09-24T08:28:42.038Z,100667.88
2022-09-24T08:31:11.839Z,100662.69
2022-09-24T08:33:39.010Z,100658.44
2022-09-24T08:36:09.721Z,100658.50
2022-09-24T08:38:36.415Z,100663.78
2022-09-24T08:41:14.539Z,100659.47
2022-09-24T08:43:57.602Z,100650.78
2022-09-24T08:46:51.335Z,100649.91
2022-09-24T08:49:31.310Z,100649.94
2022-09-24T08:52:05.091Z,100660.41
2022-09-24T08:54:33.828Z,100655.19
2022-09-24T08:57:03.308Z,100662.19
2022-09-24T08:59:32.167Z,100665.75
2022-09-24T09:02:27.001Z,100663.19
2022-09-24T09:05:15.067Z,100669.34
2022-09-24T09:08:09.675Z,100672.91
2022-09-24T09:10:49.516Z,100677.28
2022-09-24T09:13:23.864Z,100678.16
2022-09-24T09:15:58.091Z,100675.56
2022-09-24T09:18:31.120Z,100669.50
2022-09-24T09:21:10.754Z,100677.41
2022-09-24T09:23:47.599Z,100674.88
2022-09-24T09:26:14.149Z,100677.56
2022-09-24T09:28:40.781Z,100676.75
2022-09-24T09:31:30.421Z,100672.47
2022-09-24T09:34:18.574Z,100672.50
2022-09-24T09:37:04.337Z,100668.28
2022-09-24T09:39:50.790Z,100671.84
2022-09-24T09:42:20.473Z,100672.81
2022-09-24T09:44:46.888Z,100672.88
2022-09-24T09:47:45.950Z,100668.56
2022-09-24T09:50:26.908Z,100679.03
2022-09-24T09:52:53.346Z,100676.56
2022-09-24T09:55:27.109Z,100667.06
2022-09-24T09:57:54.007Z,100668.06
2022-09-24T10:00:26.569Z,100675.13
2022-09-24T10:02:53.663Z,100683.06
2022-09-24T10:05:27.003Z,100683.16
2022-09-24T10:07:54.152Z,100676.31
2022-09-24T10:10:25.945Z,100675.53
2022-09-24T10:12:54.213Z,100678.28
2022-09-24T10:15:22.674Z,100670.53
2022-09-24T10:17:51.094Z,100673.25
2022-09-24T10:20:32.658Z,100666.38
2022-09-24T10:23:08.235Z,100670.84
2022-09-24T10:25:36.309Z,100662.16
2022-09-24T10:28:25.878Z,100667.50
2022-09-24T10:31:01.163Z,100665.75
2022-09-24T10:33:36.077Z,100670.19
2022-09-24T10:36:32.969Z,100664.97
2022-09-24T10:39:08.540Z,100669.44
2022-09-24T10:41:35.804Z,100659.00
2022-09-24T10:44:05.463Z,100659.97
2022-09-24T10:46:44.882Z,100648.69
2022-09-24T10:49:23.479Z,100653.13
2022-09-24T10:52:04.178Z,100648.81
2022-09-24T10:55:02.721Z,100637.56
2022-09-24T10:57:49.399Z,100656.06
2022-09-24T11:00:21.797Z,100658.69
2022-09-24T11:03:01.599Z,100654.38
2022-09-24T11:05:33.579Z,100655.31
2022-09-24T11:08:15.603Z,100658.84
2022-09-24T11:11:15.031Z,100648.44
2022-09-24T11:14:35.790Z,100650.25
2022-09-24T11:17:15.708Z,100651.19
2022-09-24T11:19:57.369Z,100645.16
2022-09-24T11:22:33.682Z,100649.53
2022-09-24T11:25:18.438Z,100638.25
2022-09-24T11:27:56.210Z,100638.28
2022-09-24T11:30:24.986Z,100638.44
2022-09-24T11:33:22.849Z,100636.69
2022-09-24T11:36:05.412Z,100648.13
2022-09-24T11:38:57.305Z,100635.03
2022-09-24T11:41:35.910Z,100628.94
2022-09-24T11:44:27.014Z,100635.94
2022-09-24T11:47:27.650Z,100630.75
2022-09-24T11:50:21.958Z,100635.16
2022-09-24T11:52:55.315Z,100623.78
2022-09-24T11:55:44.267Z,100626.41
2022-09-24T11:58:30.070Z,100624.69
2022-09-24T12:01:02.196Z,100623.81
2022-09-24T12:03:39.497Z,100622.06
2022-09-24T12:06:13.806Z,100619.44
2022-09-24T12:08:55.855Z,100616.81
2022-09-24T12:11:30.739Z,100615.94
2022-09-24T12:14:02.992Z,100621.25
2022-09-24T12:16:33.362Z,100616.00
2022-09-24T12:19:23.234Z,100618.59
2022-09-24T12:21:52.158Z,100619.47
2022-09-24T12:24:24.404Z,100616.84
2022-09-24T12:26:51.138Z,100611.59
2022-09-24T12:30:00.291Z,100611.63
2022-09-24T12:32:54.689Z,100608.97
2022-09-24T12:35:42.622Z,100615.09
2022-09-24T12:38:14.910Z,100613.34
2022-09-24T12:41:08.487Z,100609.84
2022-09-24T12:43:59.061Z,100614.22
2022-09-24T12:46:43.200Z,100609.84
2022-09-24T12:49:29.521Z,100605.41
2022-09-24T12:51:57.759Z,100608.91
2022-09-24T12:54:28.383Z,100610.66
2022-09-24T12:57:26.183Z,100613.25
2022-09-24T12:59:54.218Z,100601.00
2022-09-24T13:02:29.298Z,100605.38
2022-09-24T13:05:01.732Z,100599.25
2022-09-24T13:07:36.322Z,100601.88
2022-09-24T13:10:18.376Z,100603.59
2022-09-24T13:12:45.326Z,100600.09
2022-09-24T13:15:31.415Z,100600.97
2022-09-24T13:18:10.793Z,100590.47
2022-09-24T13:20:38.922Z,100598.34
2022-09-24T13:23:37.741Z,100593.09
2022-09-24T13:26:06.963Z,100593.06
2022-09-24T13:28:58.568Z,100598.34
2022-09-24T13:31:28.011Z,100595.72
2022-09-24T13:34:09.848Z,100600.97
2022-09-24T13:36:40.567Z,100597.47
2022-09-24T13:39:17.278Z,100588.72
2022-09-24T13:42:15.323Z,100593.97
2022-09-24T13:44:43.869Z,100591.34
2022-09-24T13:47:36.191Z,100590.47
2022-09-24T13:50:15.303Z,100593.97
2022-09-24T13:52:49.850Z,100600.94
2022-09-24T13:55:20.612Z,100594.81
2022-09-24T13:57:47.867Z,100588.69
2022-09-24T14:00:26.166Z,100586.06
2022-09-24T14:02:54.161Z,100580.81
2022-09-24T14:05:21.951Z,100586.06
2022-09-24T14:08:15.325Z,100582.56
2022-09-24T14:10:42.492Z,100586.94
2022-09-24T14:13:08.816Z,100576.38
2022-09-24T14:15:36.305Z,100584.25
2022-09-24T14:18:02.975Z,100579.88
2022-09-24T14:20:33.581Z,100579.00
2022-09-24T14:23:00.394Z,100585.13
2022-09-24T14:25:30.859Z,100585.97
2022-09-24T14:27:58.576Z,100585.97
2022-09-24T14:30:27.472Z,100582.47
2022-09-24T14:32:56.616Z,100585.06
2022-09-24T14:35:37.454Z,100592.88
2022-09-24T14:38:12.037Z,100585.88
2022-09-24T14:40:48.346Z,100587.63
2022-09-24T14:43:16.982Z,100587.63
2022-09-24T14:45:43.532Z,100582.38
2022-09-24T14:48:28.938Z,100586.75
2022-09-24T14:50:55.562Z,100592.88
2022-09-24T14:53:36.562Z,100591.13
2022-09-24T14:56:28.157Z,100593.75
2022-09-24T14:58:54.817Z,100595.56
2022-09-24T15:01:22.675Z,100590.31
2022-09-24T15:03:55.324Z,100590.31
2022-09-24T15:06:35.828Z,100591.19
2022-09-24T15:09:05.314Z,100584.22
2022-09-24T15:11:34.475Z,100585.94
2022-09-24T15:14:30.899Z,100578.97
2022-09-24T15:17:10.434Z,100578.09
2022-09-24T15:19:37.710Z,100580.75
2022-09-24T15:22:04.435Z,100582.47
2022-09-24T15:24:30.830Z,100576.34
2022-09-24T15:27:03.185Z,100576.34
2022-09-24T15:29:29.996Z,100577.22
2022-09-24T15:31:57.563Z,100584.22
2022-09-24T15:34:24.035Z,100579.84
2022-09-24T15:36:54.073Z,100584.22
2022-09-24T15:39:20.485Z,100588.56
2022-09-24T15:41:47.082Z,100590.31
2022-09-24T15:44:27.301Z,100585.94
2022-09-24T15:46:57.883Z,100589.38
2022-09-24T15:49:24.797Z,100585.88
2022-09-24T15:51:54.059Z,100589.34
2022-09-24T15:54:21.672Z,100585.81
2022-09-24T15:56:52.291Z,100589.28
2022-09-24T15:59:20.030Z,100592.78
2022-09-24T16:01:48.326Z,100595.41
2022-09-24T16:04:14.863Z,100590.16
2022-09-24T16:06:41.298Z,100599.72
2022-09-24T16:09:07.761Z,100590.09
2022-09-24T16:11:34.497Z,100597.94
2022-09-24T16:14:00.898Z,100602.31
2022-09-24T16:16:27.315Z,100596.19
2022-09-24T16:18:53.965Z,100590.91
2022-09-24T16:21:20.437Z,100606.63
2022-09-24T16:23:46.995Z,100599.63
2022-09-24T16:26:13.403Z,100607.47
2022-09-24T16:28:39.817Z,100603.09
2022-09-24T16:31:07.282Z,100601.34
2022-09-24T16:33:38.174Z,100603.97
2022-09-24T16:36:08.109Z,100611.81
2022-09-24T16:38:35.986Z,100619.63
2022-09-24T16:41:02.741Z,100620.50
2022-09-24T16:43:29.452Z,100624.88
2022-09-24T16:46:04.071Z,100628.34
2022-09-24T16:48:31.260Z,100627.47
2022-09-24T16:51:08.591Z,100628.34
2022-09-24T16:53:35.441Z,100629.22
2022-09-24T16:56:10.313Z,100630.94
2022-09-24T16:58:36.727Z,100637.03
2022-09-24T17:01:04.907Z,100638.75
2022-09-24T17:03:31.338Z,100644.88
2022-09-24T17:05:58.027Z,100637.88
2022-09-24T17:08:44.361Z,100636.97
2022-09-24T17:11:10.831Z,100633.47
2022-09-24T17:13:37.217Z,100638.69
2022-09-24T17:16:03.689Z,100632.59
2022-09-24T17:18:30.138Z,100642.16
2022-09-24T17:21:23.145Z,100650.00
2022-09-24T17:23:50.413Z,100640.38
2022-09-24T17:26:18.729Z,100641.22
2022-09-24T17:28:46.370Z,100646.47
2022-09-24T17:31:15.493Z,100644.72
2022-09-24T17:33:44.077Z,100645.56
2022-09-24T17:36:12.537Z,100643.72
2022-09-24T17:38:39.048Z,100642.84
2022-09-24T17:41:08.013Z,100648.94
2022-09-24T17:43:34.797Z,100642.78
2022-09-24T17:46:10.158Z,100645.41
2022-09-24T17:48:42.719Z,100640.97
2022-09-24T17:51:23.997Z,100649.69
2022-09-24T17:53:52.940Z,100654.03
2022-09-24T17:56:20.943Z,100655.78
2022-09-24T17:58:47.779Z,100654.00
2022-09-24T18:01:20.246Z,100657.44
2022-09-24T18:03:46.813Z,100664.41
2022-09-24T18:06:15.121Z,100660.91
2022-09-24T18:08:43.233Z,100668.75
2022-09-24T18:11:40.208Z,100675.72
2022-09-24T18:14:07.133Z,100681.81
2022-09-24T18:16:34.254Z,100673.94
2022-09-24T18:19:01.820Z,100678.28
2022-09-24T18:21:29.197Z,100683.53
2022-09-24T18:23:56.854Z,100685.28
2022-09-24T18:26:29.304Z,100688.75
2022-09-24T18:28:57.983Z,100687.84
2022-09-24T18:31:28.151Z,100682.56
2022-09-24T18:33:56.706Z,100683.44
2022-09-24T18:36:25.478Z,100690.41
2022-09-24T18:38:51.937Z,100688.66
2022-09-24T18:41:23.943Z,100689.50
2022-09-24T18:43:51.340Z,100695.59
2022-09-24T18:46:20.108Z,100696.47
2022-09-24T18:48:48.462Z,100695.56
2022-09-24T18:51:23.405Z,100698.16
2022-09-24T18:53:58.110Z,100693.78
2022-09-24T18:56:27.012Z,100706.84
2022-09-24T18:59:09.719Z,100704.19
2022-09-24T19:01:37.433Z,100701.53
2022-09-24T19:04:04.471Z,100712.03
2022-09-24T19:06:31.333Z,100709.38
2022-09-24T19:08:57.757Z,100717.19
2022-09-24T19:11:24.166Z,100710.19
2022-09-24T19:13:52.814Z,100717.13
2022-09-24T19:16:21.202Z,100709.25
2022-09-24T19:18:47.643Z,100703.97
2022-09-24T19:21:15.445Z,100707.47
2022-09-24T19:23:47.409Z,100706.56
2022-09-24T19:26:19.733Z,100707.44
2022-09-24T19:28:50.821Z,100706.53
2022-09-24T19:31:22.809Z,100698.66
2022-09-24T19:33:50.185Z,100706.47
2022-09-24T19:36:19.857Z,100712.56
2022-09-24T19:38:47.180Z,100706.44
2022-09-24T19:41:26.203Z,100709.03
2022-09-24T19:43:54.254Z,100707.28
2022-09-24T19:46:24.074Z,100707.25
2022-09-24T19:48:50.583Z,100714.25
2022-09-24T19:51:19.476Z,100709.00
2022-09-24T19:53:53.413Z,100707.25
2022-09-24T19:56:22.372Z,100708.94
2022-09-24T19:58:55.878Z,100702.84
2022-09-24T20:01:28.107Z,100704.56
2022-09-24T20:03:55.182Z,100702.78
2022-09-24T20:06:24.238Z,100700.13
2022-09-24T20:08:51.417Z,100697.50
2022-09-24T20:11:20.378Z,100697.50
2022-09-24T20:13:48.009Z,100695.72
2022-09-24T20:16:19.986Z,100697.50
2022-09-24T20:18:47.962Z,100693.97
2022-09-24T20:21:17.159Z,100690.47
2022-09-24T20:23:44.289Z,100684.34
2022-09-24T20:26:30.514Z,100682.53
2022-09-24T20:28:57.311Z,100683.38
2022-09-24T20:31:24.200Z,100679.84
2022-09-24T20:33:50.744Z,100678.09
2022-09-24T20:36:20.709Z,100676.34
2022-09-24T20:38:49.791Z,100671.97
2022-09-24T20:41:24.233Z,100673.69
2022-09-24T20:43:51.361Z,100669.31
2022-09-24T20:46:23.994Z,100680.59
2022-09-24T20:48:51.714Z,100674.44
2022-09-24T20:51:20.105Z,100681.38
2022-09-24T20:53:47.691Z,100674.41
2022-09-24T20:56:14.763Z,100674.38
2022-09-24T20:58:41.681Z,100682.22
2022-09-24T21:01:09.143Z,100681.31
2022-09-24T21:03:44.541Z,100681.34
2022-09-24T21:06:12.657Z,100683.88
2022-09-24T21:08:40.998Z,100676.88
2022-09-24T21:11:16.093Z,100671.63
2022-09-24T21:13:49.941Z,100677.72
2022-09-24T21:16:19.680Z,100678.56
2022-09-24T21:18:47.266Z,100680.31
2022-09-24T21:21:19.303Z,100679.41
2022-09-24T21:23:47.594Z,100680.25
2022-09-24T21:26:19.603Z,100673.25
2022-09-24T21:28:51.051Z,100680.22
2022-09-24T21:31:21.266Z,100670.59
2022-09-24T21:33:49.679Z,100674.06
2022-09-24T21:36:19.418Z,100680.16
2022-09-24T21:38:54.175Z,100674.00
2022-09-24T21:41:22.611Z,100675.72
2022-09-24T21:43:49.091Z,100673.97
2022-09-24T21:46:15.847Z,100679.16
2022-09-24T21:48:42.467Z,100677.38
2022-09-24T21:51:10.927Z,100676.44
2022-09-24T21:53:37.890Z,100673.81
2022-09-24T21:56:05.118Z,100671.16
2022-09-24T21:58:31.701Z,100676.34
2022-09-24T22:01:04.689Z,100680.66
2022-09-24T22:03:31.878Z,100671.91
2022-09-24T22:06:00.189Z,100664.91
2022-09-24T22:08:31.505Z,100668.38
2022-09-24T22:11:03.613Z,100659.66
2022-09-24T22:13:31.031Z,100661.38
2022-09-24T22:15:59.789Z,100660.50
2022-09-24T22:18:27.900Z,100663.09
2022-09-24T22:20:55.522Z,100654.38
2022-09-24T22:23:21.983Z,100657.84
2022-09-24T22:25:55.343Z,100647.34
2022-09-24T22:28:25.088Z,100652.59
2022-09-24T22:30:52.861Z,100652.59
2022-09-24T22:33:38.073Z,100657.78
2022-09-24T22:36:04.611Z,100657.75
2022-09-24T22:38:31.506Z,100654.28
2022-09-24T22:41:02.194Z,100650.72
2022-09-24T22:43:29.455Z,100645.50
2022-09-24T22:45:59.753Z,100645.56
2022-09-24T22:48:26.485Z,100639.41
2022-09-24T22:50:52.985Z,100645.50
2022-09-24T22:53:19.882Z,100642.00
2022-09-24T22:55:50.483Z,100639.41
2022-09-24T22:58:18.960Z,100645.47
2022-09-24T23:00:45.489Z,100636.75
2022-09-24T23:03:11.967Z,100647.22
2022-09-24T23:05:39.093Z,100640.22
2022-09-24T23:08:05.502Z,100641.09
2022-09-24T23:10:31.918Z,100640.22
2022-09-24T23:12:58.296Z,100643.69
2022-09-24T23:15:25.454Z,100644.56
2022-09-24T23:17:52.304Z,100645.44
2022-09-24T23:20:18.761Z,100641.94
2022-09-24T23:22:45.146Z,100645.41
2022-09-24T23:25:11.543Z,100643.66
2022-09-24T23:27:37.959Z,100641.03
2022-09-24T23:30:04.979Z,100648.03
2022-09-24T23:32:31.998Z,100641.03
2022-09-24T23:34:58.429Z,100646.25
2022-09-24T23:37:24.850Z,100640.16
2022-09-24T23:39:51.257Z,100640.13
2022-09-24T23:42:17.647Z,100641.84
2022-09-24T23:44:45.321Z,100635.66
2022-09-24T23:47:11.861Z,100634.72
2022-09-24T23:49:38.290Z,100638.19
2022-09-24T23:52:05.767Z,100638.97
2022-09-24T23:54:32.166Z,100634.53
2022-09-24T23:56:58.546Z,100632.78
2022-09-24T23:59:24.953Z,100638.84
